New Century, Kansas
Current Conditions -  °F | °C
As of 11:53 PM on Saturday 25 Oct 2014 (Local Time) from KIXD Reporting Station
Clear Clear  
Wind Chill: 63°   Ceiling: Unl
Heat Index: 63°   Visibility: 10mi
Dew Point: 57°   Wind: 6mph
Humidity: 81%   Direction: 120°ESE
Pressure: 30"   Gusts: NA
Location:  38.81°N, 94.93°W
Report Text: KIXD 260453Z AUTO 12005KT 10SM CLR 17/14 A3000 RMK AO2 SLP150 T01720139
Loading
Personal Weather Stations






























Interactive Weather Map
Tropical Storm Tracking
New forecast layout! Learn more

10-Day Weather Forecast

Advertisements
Track Severe Weather on mobile